createdAt,value
2023-04-12T00:01:10.779Z,4.75
2023-04-12T00:03:39.511Z,8.73
2023-04-12T00:06:07.506Z,4.88
2023-04-12T00:08:35.607Z,4.13
2023-04-12T00:11:03.402Z,3.95
2023-04-12T00:13:30.773Z,12.40
2023-04-12T00:15:58.374Z,7.38
2023-04-12T00:18:25.875Z,9.88
2023-04-12T00:20:54.644Z,6.75
2023-04-12T00:23:22.583Z,7.88
2023-04-12T00:25:50.669Z,6.97
2023-04-12T00:28:18.005Z,10.75
2023-04-12T00:30:45.811Z,6.00
2023-04-12T00:33:13.478Z,11.65
2023-04-12T00:35:40.853Z,8.43
2023-04-12T00:38:10.283Z,8.30
2023-04-12T00:40:44.345Z,11.48
2023-04-12T00:43:18.145Z,13.57
2023-04-12T00:45:48.642Z,9.05
2023-04-12T00:48:15.975Z,14.52
2023-04-12T00:50:44.569Z,9.88
2023-04-12T00:53:13.568Z,9.85
2023-04-12T00:55:41.980Z,8.52
2023-04-12T00:58:09.347Z,8.77
2023-04-12T01:00:36.599Z,7.55
2023-04-12T01:03:05.296Z,5.32
2023-04-12T01:05:34.373Z,7.35
2023-04-12T01:08:19.299Z,9.23
2023-04-12T01:11:03.685Z,12.98
2023-04-12T01:13:53.087Z,11.25
2023-04-12T01:16:26.424Z,5.97
2023-04-12T01:18:57.779Z,14.07
2023-04-12T01:21:41.638Z,7.50
2023-04-12T01:24:52.744Z,14.07
2023-04-12T01:27:35.309Z,8.57
2023-04-12T01:30:02.532Z,5.43
2023-04-12T01:32:30.070Z,10.10
2023-04-12T01:34:57.835Z,7.03
2023-04-12T01:37:25.334Z,6.75
2023-04-12T01:39:53.355Z,8.80
2023-04-12T01:42:20.716Z,14.05
2023-04-12T01:44:48.691Z,6.65
2023-04-12T01:47:16.140Z,6.72
2023-04-12T01:50:13.271Z,5.43
2023-04-12T01:52:45.111Z,3.53
2023-04-12T01:55:12.715Z,5.03
2023-04-12T01:57:40.409Z,5.35
2023-04-12T02:00:10.448Z,2.72
2023-04-12T02:05:09.091Z,1.63
2023-04-12T02:07:37.303Z,4.22
2023-04-12T02:10:04.729Z,3.67
2023-04-12T02:12:32.093Z,3.47
2023-04-12T02:15:00.376Z,5.10
2023-04-12T02:17:29.377Z,7.32
2023-04-12T02:19:57.594Z,3.30
2023-04-12T02:22:24.581Z,2.58
2023-04-12T02:24:51.908Z,2.50
2023-04-12T02:27:19.272Z,1.40
2023-04-12T02:29:47.013Z,7.43
2023-04-12T02:32:15.407Z,3.08
2023-04-12T02:34:44.267Z,5.80
2023-04-12T02:39:45.344Z,4.90
2023-04-12T02:42:12.932Z,6.15
2023-04-12T02:44:43.498Z,2.45
2023-04-12T02:47:13.198Z,2.90
2023-04-12T02:49:43.944Z,3.47
2023-04-12T02:52:14.431Z,5.25
2023-04-12T02:54:57.322Z,2.28
2023-04-12T02:57:24.827Z,4.28
2023-04-12T02:59:55.178Z,3.30
2023-04-12T03:02:31.530Z,9.18
2023-04-12T03:05:03.241Z,4.80
2023-04-12T03:07:39.782Z,2.42
2023-04-12T03:10:09.086Z,11.60
2023-04-12T03:12:40.873Z,4.60
2023-04-12T03:15:17.603Z,6.53
2023-04-12T03:17:48.974Z,2.67
2023-04-12T03:20:20.022Z,5.75
2023-04-12T03:22:59.288Z,4.10
2023-04-12T03:25:28.150Z,9.30
2023-04-12T03:28:00.338Z,3.75
2023-04-12T03:30:43.822Z,4.32
2023-04-12T03:33:11.073Z,14.70
2023-04-12T03:35:38.846Z,7.25
2023-04-12T03:38:06.716Z,6.82
2023-04-12T03:40:34.405Z,7.80
2023-04-12T03:43:02.127Z,5.65
2023-04-12T03:45:30.532Z,22.00
2023-04-12T03:48:01.120Z,7.80
2023-04-12T03:50:31.940Z,9.50
2023-04-12T03:52:59.058Z,10.70
2023-04-12T03:55:31.271Z,9.30
2023-04-12T03:58:00.689Z,8.50
2023-04-12T04:03:07.539Z,10.70
2023-04-12T04:08:20.718Z,10.18
2023-04-12T04:10:51.426Z,12.57
2023-04-12T04:13:20.852Z,13.05
2023-04-12T04:15:55.395Z,16.38
2023-04-12T04:18:23.403Z,12.82
2023-04-12T04:20:50.665Z,10.13
2023-04-12T04:23:18.540Z,6.43
2023-04-12T04:25:46.059Z,6.22
2023-04-12T04:28:15.810Z,7.28
2023-04-12T04:30:45.834Z,7.40
2023-04-12T04:33:15.961Z,4.68
2023-04-12T04:35:43.903Z,7.07
2023-04-12T04:38:26.575Z,8.20
2023-04-12T04:41:04.803Z,10.30
2023-04-12T04:43:48.432Z,8.43
2023-04-12T04:46:21.286Z,18.95
2023-04-12T04:48:49.806Z,17.92
2023-04-12T04:51:17.400Z,17.70
2023-04-12T04:53:46.204Z,10.10
2023-04-12T04:56:16.522Z,12.25
2023-04-12T04:58:46.197Z,10.73
2023-04-12T05:01:17.089Z,7.95
2023-04-12T05:03:49.519Z,11.00
2023-04-12T05:06:19.405Z,15.00
2023-04-12T05:08:46.527Z,9.85
2023-04-12T05:11:16.843Z,11.25
2023-04-12T05:13:44.768Z,9.23
2023-04-12T05:16:12.608Z,9.73
2023-04-12T05:18:40.116Z,7.70
2023-04-12T05:21:07.598Z,14.45
2023-04-12T05:23:36.869Z,9.10
2023-04-12T05:26:05.561Z,17.05
2023-04-12T05:28:32.950Z,24.52
2023-04-12T05:31:00.684Z,12.48
2023-04-12T05:33:36.440Z,11.93
2023-04-12T05:36:04.552Z,10.77
2023-04-12T05:38:32.313Z,9.15
2023-04-12T05:41:05.440Z,12.93
2023-04-12T05:43:34.076Z,8.90
2023-04-12T05:46:02.496Z,16.17
2023-04-12T05:48:30.812Z,14.75
2023-04-12T05:51:02.268Z,12.73
2023-04-12T05:53:32.461Z,20.33
2023-04-12T05:56:03.431Z,15.75
2023-04-12T05:58:30.785Z,18.05
2023-04-12T06:00:58.928Z,14.88
2023-04-12T06:03:26.472Z,16.73
2023-04-12T06:05:58.426Z,11.77
2023-04-12T06:08:29.041Z,10.38
2023-04-12T06:10:56.168Z,10.25
2023-04-12T06:13:24.176Z,8.23
2023-04-12T06:15:51.901Z,16.27
2023-04-12T06:18:19.828Z,10.48
2023-04-12T06:20:47.585Z,14.77
2023-04-12T06:23:14.949Z,11.35
2023-04-12T06:25:42.472Z,18.77
2023-04-12T06:28:10.141Z,14.07
2023-04-12T06:30:43.877Z,7.53
2023-04-12T06:33:11.681Z,9.18
2023-04-12T06:35:39.863Z,4.97
2023-04-12T06:38:07.426Z,8.98
2023-04-12T06:40:34.811Z,11.32
2023-04-12T06:43:02.404Z,7.97
2023-04-12T06:45:29.513Z,12.52
2023-04-12T06:47:56.978Z,11.80
2023-04-12T06:50:25.853Z,11.65
2023-04-12T06:52:53.546Z,14.68
2023-04-12T06:55:21.298Z,13.52
2023-04-12T06:57:52.054Z,23.55
2023-04-12T07:00:19.574Z,15.77
2023-04-12T07:02:47.165Z,6.53
2023-04-12T07:05:14.607Z,6.97
2023-04-12T07:07:41.749Z,3.58
2023-04-12T07:10:09.099Z,2.30
2023-04-12T07:12:36.195Z,4.03
2023-04-12T07:15:03.882Z,6.93
2023-04-12T07:17:31.162Z,3.05
2023-04-12T07:20:01.386Z,6.50
2023-04-12T07:22:28.509Z,1.52
2023-04-12T07:24:55.431Z,3.17
2023-04-12T07:27:22.735Z,5.80
2023-04-12T07:29:52.921Z,1.13
2023-04-12T07:32:20.395Z,4.18
2023-04-12T07:34:47.801Z,2.60
2023-04-12T07:37:17.696Z,3.97
2023-04-12T07:39:45.021Z,3.95
2023-04-12T07:42:12.667Z,1.52
2023-04-12T07:44:39.879Z,0.80
2023-04-12T07:47:06.969Z,4.43
2023-04-12T07:49:34.329Z,4.38
2023-04-12T07:52:01.291Z,3.65
2023-04-12T07:54:28.963Z,3.40
2023-04-12T07:57:00.353Z,5.97
2023-04-12T07:59:27.443Z,4.18
2023-04-12T08:01:54.923Z,9.90
2023-04-12T08:04:22.135Z,3.83
2023-04-12T08:06:49.357Z,5.07
2023-04-12T08:09:16.767Z,5.15
2023-04-12T08:11:44.322Z,4.05
2023-04-12T08:14:11.409Z,6.05
2023-04-12T08:16:38.541Z,3.22
2023-04-12T08:19:05.517Z,5.95
2023-04-12T08:21:33.797Z,3.97
2023-04-12T08:24:01.477Z,28.02
2023-04-12T08:26:29.530Z,26.77
2023-04-12T08:28:58.013Z,11.20
2023-04-12T08:31:25.460Z,7.40
2023-04-12T08:33:53.850Z,4.72
2023-04-12T08:36:21.203Z,0.70
2023-04-12T08:38:52.152Z,5.22
2023-04-12T08:41:20.109Z,2.78
2023-04-12T08:43:48.389Z,3.33
2023-04-12T08:46:16.111Z,3.70
2023-04-12T08:48:47.951Z,3.65
2023-04-12T08:51:16.980Z,3.25
2023-04-12T08:53:44.463Z,3.50
2023-04-12T08:56:12.302Z,3.25
2023-04-12T08:58:45.669Z,1.75
2023-04-12T09:03:43.020Z,5.18
2023-04-12T09:06:11.123Z,6.63
2023-04-12T09:08:49.702Z,7.75
2023-04-12T09:11:27.729Z,12.60
2023-04-12T09:13:55.920Z,5.13
2023-04-12T09:16:40.375Z,7.47
2023-04-12T09:19:07.961Z,11.48
2023-04-12T09:21:35.795Z,8.23
2023-04-12T09:24:10.366Z,17.58
2023-04-12T09:26:40.209Z,14.57
2023-04-12T09:29:07.654Z,20.25
2023-04-12T09:31:35.685Z,10.50
2023-04-12T09:34:09.614Z,8.63
2023-04-12T09:36:40.153Z,9.32
2023-04-12T09:39:08.216Z,14.52
2023-04-12T09:41:36.245Z,15.32
2023-04-12T09:44:03.949Z,10.07
2023-04-12T09:46:31.540Z,13.50
2023-04-12T09:48:58.956Z,14.95
2023-04-12T09:51:28.204Z,10.55
2023-04-12T09:54:00.959Z,8.43
2023-04-12T09:56:36.280Z,7.35
2023-04-12T09:59:04.976Z,10.05
2023-04-12T10:01:39.045Z,5.55
2023-04-12T10:04:07.803Z,10.55
2023-04-12T10:06:36.049Z,7.78
2023-04-12T10:09:06.469Z,11.82
2023-04-12T10:11:37.453Z,7.82
2023-04-12T10:14:05.257Z,13.70
2023-04-12T10:16:34.008Z,12.40
2023-04-12T10:19:03.045Z,17.08
2023-04-12T10:21:31.075Z,13.25
2023-04-12T10:23:58.689Z,12.52
2023-04-12T10:26:26.113Z,14.73
2023-04-12T10:29:32.736Z,23.65
2023-04-12T10:32:23.625Z,17.63
2023-04-12T10:34:56.269Z,13.27
2023-04-12T10:38:01.554Z,13.75
2023-04-12T10:40:29.725Z,13.10
2023-04-12T10:43:18.807Z,19.92
2023-04-12T10:45:46.721Z,18.27
2023-04-12T10:48:37.968Z,14.05
2023-04-12T10:51:26.475Z,10.13
2023-04-12T10:54:08.096Z,11.25
2023-04-12T10:56:39.535Z,25.23
2023-04-12T10:59:09.574Z,10.88
2023-04-12T11:02:07.240Z,16.83
2023-04-12T11:04:40.204Z,11.30
2023-04-12T11:07:12.302Z,10.88
2023-04-12T11:09:42.736Z,7.40
2023-04-12T11:12:14.808Z,7.05
2023-04-12T11:14:49.599Z,10.13
2023-04-12T11:17:18.736Z,6.10
2023-04-12T11:19:46.513Z,11.13
2023-04-12T11:22:15.549Z,11.05
2023-04-12T11:24:47.816Z,7.63
2023-04-12T11:27:16.451Z,10.52
2023-04-12T11:29:44.222Z,8.68
2023-04-12T11:32:15.658Z,9.90
2023-04-12T11:34:45.966Z,7.32
2023-04-12T11:37:13.790Z,6.88
2023-04-12T11:39:42.642Z,7.00
2023-04-12T11:42:18.398Z,4.70
2023-04-12T11:44:55.310Z,6.30
2023-04-12T11:47:25.785Z,13.98
2023-04-12T11:49:55.718Z,13.13
2023-04-12T11:52:30.377Z,9.80
2023-04-12T11:55:09.177Z,8.65
2023-04-12T11:57:36.319Z,15.88
2023-04-12T12:00:06.257Z,16.95
2023-04-12T12:02:48.855Z,10.60
2023-04-12T12:05:24.231Z,10.82
2023-04-12T12:07:52.861Z,11.35
2023-04-12T12:10:37.728Z,16.83
2023-04-12T12:13:11.942Z,28.30
2023-04-12T12:15:39.434Z,25.90
2023-04-12T12:18:10.309Z,23.30
2023-04-12T12:20:42.250Z,37.85
2023-04-12T12:23:09.679Z,32.30
2023-04-12T12:25:37.023Z,22.25
2023-04-12T12:28:05.384Z,57.95
2023-04-12T12:30:40.201Z,26.70
2023-04-12T12:33:07.847Z,21.27
2023-04-12T12:35:35.049Z,17.70
2023-04-12T12:38:06.000Z,15.85
2023-04-12T12:40:33.181Z,19.60
2023-04-12T12:43:00.744Z,11.50
2023-04-12T12:45:29.008Z,11.00
2023-04-12T12:47:59.852Z,9.60
2023-04-12T12:50:28.362Z,11.65
2023-04-12T12:52:55.951Z,9.68
2023-04-12T12:55:23.975Z,7.88
2023-04-12T12:58:07.552Z,10.57
2023-04-12T13:00:36.313Z,7.43
2023-04-12T13:03:04.275Z,10.07
2023-04-12T13:05:31.920Z,17.02
2023-04-12T13:07:59.280Z,15.18
2023-04-12T13:10:27.085Z,11.25
2023-04-12T13:12:54.323Z,7.70
2023-04-12T13:15:24.302Z,19.02
2023-04-12T13:17:53.170Z,14.63
2023-04-12T13:20:21.128Z,19.10
2023-04-12T13:22:48.399Z,11.40
2023-04-12T13:25:15.925Z,18.25
2023-04-12T13:27:43.174Z,19.45
2023-04-12T13:30:11.251Z,21.20
2023-04-12T13:32:39.081Z,29.27
2023-04-12T13:35:06.559Z,23.33
2023-04-12T13:37:34.579Z,26.17
2023-04-12T13:40:01.848Z,22.30
2023-04-12T13:42:28.852Z,18.25
2023-04-12T13:44:56.888Z,17.60
2023-04-12T13:47:24.039Z,13.07
2023-04-12T13:49:51.575Z,12.38
2023-04-12T13:52:18.957Z,13.57
2023-04-12T13:54:46.694Z,15.88
2023-04-12T13:57:14.411Z,19.23
2023-04-12T13:59:41.811Z,19.92
2023-04-12T14:02:09.280Z,15.27
2023-04-12T14:04:37.265Z,14.98
2023-04-12T14:07:04.726Z,8.85
2023-04-12T14:09:32.808Z,11.65
2023-04-12T14:12:01.306Z,16.05
2023-04-12T14:14:28.537Z,14.90
2023-04-12T14:17:01.501Z,25.27
2023-04-12T14:19:29.253Z,23.60
2023-04-12T14:21:56.889Z,32.60
2023-04-12T14:24:24.086Z,46.47
2023-04-12T14:26:51.560Z,30.63
2023-04-12T14:29:19.120Z,37.08
2023-04-12T14:31:46.612Z,39.47
2023-04-12T14:34:13.935Z,25.77
2023-04-12T14:36:41.112Z,28.85
2023-04-12T14:39:10.808Z,35.20
2023-04-12T14:41:40.461Z,29.13
2023-04-12T14:44:07.989Z,30.05
2023-04-12T14:46:35.519Z,22.75
2023-04-12T14:49:03.183Z,24.75
2023-04-12T14:51:31.889Z,27.90
2023-04-12T14:53:59.916Z,20.83
2023-04-12T14:56:30.317Z,15.85
2023-04-12T14:58:59.570Z,18.15
2023-04-12T15:01:27.419Z,16.17
2023-04-12T15:03:54.945Z,20.08
2023-04-12T15:06:23.474Z,13.48
2023-04-12T15:08:54.636Z,14.52
2023-04-12T15:11:26.929Z,18.77
2023-04-12T15:13:54.741Z,17.13
2023-04-12T15:16:22.553Z,20.15
2023-04-12T15:18:50.768Z,23.70
2023-04-12T15:21:18.404Z,32.83
2023-04-12T15:23:45.878Z,22.10
2023-04-12T15:26:14.189Z,38.40
2023-04-12T15:28:42.774Z,29.48
2023-04-12T15:31:12.261Z,19.65
2023-04-12T15:33:39.874Z,22.98
2023-04-12T15:36:07.750Z,21.98
2023-04-12T15:38:40.847Z,29.63
2023-04-12T15:41:08.479Z,23.42
2023-04-12T15:43:35.580Z,25.45
2023-04-12T15:46:03.486Z,13.88
2023-04-12T15:48:30.870Z,14.85
2023-04-12T15:51:00.205Z,17.88
2023-04-12T15:53:27.774Z,10.70
2023-04-12T15:55:55.863Z,11.48
2023-04-12T15:58:24.036Z,10.15
2023-04-12T16:00:53.643Z,11.35
2023-04-12T16:03:23.080Z,10.50
2023-04-12T16:05:54.412Z,12.00
2023-04-12T16:08:23.067Z,16.45
2023-04-12T16:10:51.006Z,20.15
2023-04-12T16:13:18.809Z,18.63
2023-04-12T16:15:46.782Z,11.55
2023-04-12T16:18:14.529Z,16.98
2023-04-12T16:20:41.775Z,19.15
2023-04-12T16:23:09.554Z,31.45
2023-04-12T16:25:37.326Z,21.65
2023-04-12T16:28:05.742Z,11.48
2023-04-12T16:30:33.832Z,16.65
2023-04-12T16:33:01.392Z,13.50
2023-04-12T16:35:28.932Z,13.45
2023-04-12T16:37:56.404Z,19.05
2023-04-12T16:40:24.216Z,17.02
2023-04-12T16:42:51.963Z,17.38
2023-04-12T16:45:20.794Z,8.43
2023-04-12T16:47:49.299Z,10.88
2023-04-12T16:50:17.444Z,15.07
2023-04-12T16:52:44.945Z,29.40
2023-04-12T16:55:12.758Z,16.85
2023-04-12T16:57:44.588Z,14.75
2023-04-12T17:00:23.829Z,18.20
2023-04-12T17:02:52.809Z,11.80
2023-04-12T17:05:21.296Z,14.43
2023-04-12T17:07:54.260Z,14.13
2023-04-12T17:10:24.168Z,13.02
2023-04-12T17:12:54.839Z,17.73
2023-04-12T17:15:22.285Z,10.45
2023-04-12T17:17:52.594Z,10.43
2023-04-12T17:20:22.007Z,10.32
2023-04-12T17:22:49.705Z,8.65
2023-04-12T17:25:19.002Z,11.75
2023-04-12T17:27:49.059Z,13.48
2023-04-12T17:30:17.832Z,10.35
2023-04-12T17:32:49.684Z,14.23
2023-04-12T17:35:18.087Z,13.18
2023-04-12T17:37:45.796Z,15.68
2023-04-12T17:40:14.004Z,13.18
2023-04-12T17:42:41.742Z,15.73
2023-04-12T17:45:12.183Z,12.23
2023-04-12T17:47:42.834Z,11.10
2023-04-12T17:50:10.843Z,11.50
2023-04-12T17:52:38.564Z,11.65
2023-04-12T17:55:07.082Z,10.40
2023-04-12T17:57:34.739Z,12.73
2023-04-12T18:00:02.269Z,12.55
2023-04-12T18:02:40.198Z,19.50
2023-04-12T18:05:07.924Z,20.73
2023-04-12T18:07:35.178Z,24.27
2023-04-12T18:10:02.994Z,30.75
2023-04-12T18:12:30.793Z,23.58
2023-04-12T18:14:57.786Z,31.35
2023-04-12T18:17:26.609Z,25.90
2023-04-12T18:19:54.482Z,22.80
2023-04-12T18:22:23.549Z,23.95
2023-04-12T18:24:50.530Z,23.85
2023-04-12T18:27:17.664Z,17.38
2023-04-12T18:29:45.081Z,25.67
2023-04-12T18:32:12.544Z,24.90
2023-04-12T18:34:39.551Z,37.10
2023-04-12T18:37:07.553Z,30.85
2023-04-12T18:39:35.372Z,17.17
2023-04-12T18:42:02.656Z,16.17
2023-04-12T18:44:30.076Z,19.98
2023-04-12T18:46:57.379Z,13.77
2023-04-12T18:49:26.022Z,14.68
2023-04-12T18:51:53.566Z,11.32
2023-04-12T18:54:21.147Z,11.88
2023-04-12T18:56:49.274Z,13.95
2023-04-12T18:59:17.271Z,13.32
2023-04-12T19:01:45.857Z,12.55
2023-04-12T19:04:15.954Z,13.82
2023-04-12T19:06:44.592Z,15.00
2023-04-12T19:09:12.160Z,15.98
2023-04-12T19:11:39.665Z,19.83
2023-04-12T19:14:07.954Z,19.83
2023-04-12T19:16:36.114Z,21.60
2023-04-12T19:19:05.946Z,15.07
2023-04-12T19:21:34.233Z,20.48
2023-04-12T19:24:01.607Z,16.83
2023-04-12T19:26:32.065Z,18.88
2023-04-12T19:29:02.184Z,20.00
2023-04-12T19:31:29.527Z,18.42
2023-04-12T19:33:58.402Z,21.20
2023-04-12T19:36:27.133Z,21.98
2023-04-12T19:38:54.838Z,17.30
2023-04-12T19:41:23.726Z,22.60
2023-04-12T19:43:51.001Z,17.38
2023-04-12T19:46:18.404Z,17.73
2023-04-12T19:48:46.343Z,16.25
2023-04-12T19:51:14.927Z,16.05
2023-04-12T19:53:42.644Z,16.85
2023-04-12T19:56:12.386Z,22.48
2023-04-12T19:58:40.605Z,31.92
2023-04-12T20:01:09.601Z,29.70
2023-04-12T20:03:37.679Z,21.27
2023-04-12T20:06:05.147Z,23.92
2023-04-12T20:08:32.824Z,20.80
2023-04-12T20:11:00.008Z,21.52
2023-04-12T20:13:28.395Z,22.45
2023-04-12T20:15:55.794Z,19.38
2023-04-12T20:18:23.374Z,23.60
2023-04-12T20:20:51.632Z,25.35
2023-04-12T20:23:19.631Z,32.60
2023-04-12T20:25:48.578Z,29.08
2023-04-12T20:28:16.954Z,28.92
2023-04-12T20:30:46.999Z,34.13
2023-04-12T20:33:14.809Z,50.15
2023-04-12T20:35:42.156Z,46.97
2023-04-12T20:38:09.347Z,39.10
2023-04-12T20:40:36.660Z,38.58
2023-04-12T20:43:04.339Z,38.33
2023-04-12T20:45:31.893Z,31.65
2023-04-12T20:47:59.412Z,29.02
2023-04-12T20:50:26.606Z,31.52
2023-04-12T20:52:56.017Z,34.50
2023-04-12T20:55:24.898Z,48.55
2023-04-12T20:57:55.878Z,65.88
2023-04-12T21:00:23.532Z,62.30
2023-04-12T21:02:52.474Z,51.88
2023-04-12T21:05:20.292Z,49.78
2023-04-12T21:07:47.752Z,34.45
2023-04-12T21:10:15.249Z,27.45
2023-04-12T21:12:44.529Z,29.33
2023-04-12T21:15:12.126Z,35.58
2023-04-12T21:17:40.152Z,31.58
2023-04-12T21:20:13.348Z,24.40
2023-04-12T21:22:41.957Z,23.77
2023-04-12T21:25:14.819Z,25.15
2023-04-12T21:27:42.478Z,17.30
2023-04-12T21:30:13.798Z,12.35
2023-04-12T21:32:42.346Z,14.18
2023-04-12T21:35:10.778Z,13.35
2023-04-12T21:37:39.430Z,8.38
2023-04-12T21:40:12.145Z,10.10
2023-04-12T21:45:08.583Z,10.43
2023-04-12T21:47:35.780Z,10.20
2023-04-12T21:50:03.014Z,7.72
2023-04-12T21:52:30.646Z,15.10
2023-04-12T21:54:58.070Z,14.55
2023-04-12T21:57:25.435Z,6.32
2023-04-12T21:59:52.419Z,7.32
2023-04-12T22:02:19.701Z,4.85
2023-04-12T22:04:47.661Z,8.80
2023-04-12T22:07:17.462Z,10.75
2023-04-12T22:09:45.035Z,11.43
2023-04-12T22:12:13.022Z,9.00
2023-04-12T22:14:46.318Z,6.43
2023-04-12T22:17:14.500Z,8.50
2023-04-12T22:19:42.380Z,9.40
2023-04-12T22:22:10.854Z,8.88
2023-04-12T22:24:38.478Z,12.65
2023-04-12T22:27:06.976Z,10.32
2023-04-12T22:29:34.308Z,10.10
2023-04-12T22:32:02.405Z,9.85
2023-04-12T22:34:29.717Z,9.38
2023-04-12T22:36:59.677Z,7.60
2023-04-12T22:39:27.080Z,9.45
2023-04-12T22:41:57.442Z,8.35
2023-04-12T22:44:25.161Z,9.40
2023-04-12T22:46:54.220Z,8.70
2023-04-12T22:49:27.266Z,12.02
2023-04-12T22:54:23.108Z,10.38
2023-04-12T22:56:50.416Z,9.23
2023-04-12T22:59:18.684Z,9.98
2023-04-12T23:01:46.581Z,7.78
2023-04-12T23:04:14.389Z,13.10
2023-04-12T23:06:43.322Z,8.52
2023-04-12T23:09:11.567Z,18.00
2023-04-12T23:11:39.629Z,14.35
2023-04-12T23:14:07.839Z,16.45
2023-04-12T23:16:35.357Z,13.70
2023-04-12T23:19:05.189Z,11.70
2023-04-12T23:21:33.101Z,14.27
2023-04-12T23:24:00.773Z,17.08
2023-04-12T23:26:28.104Z,13.35
2023-04-12T23:28:55.418Z,6.95
2023-04-12T23:31:23.125Z,14.00
2023-04-12T23:33:50.402Z,11.80
2023-04-12T23:36:21.671Z,21.17
2023-04-12T23:38:55.024Z,15.05
2023-04-12T23:41:22.235Z,11.88
2023-04-12T23:43:49.345Z,18.35
2023-04-12T23:46:17.004Z,20.35
2023-04-12T23:48:44.199Z,15.13
2023-04-12T23:51:11.375Z,15.70
2023-04-12T23:53:38.908Z,13.60
2023-04-12T23:56:06.689Z,15.98
2023-04-12T23:58:34.381Z,14.57
